To NAV CANADA Home Page Login to a new session Search on AWWS site Feedback and Comments Disclaimer Vers la page française équivalente Tips FAQ What's new on the site To the Forecasts and Observations / NOTAM section To "File a Flight Plan" website Publications and other links Update of the User's profile FIC Telephone Numbers My Weather Data Folder Route Weather Data Regional Weather Data Local Weather Data To the Forecasts and Observations / NOTAM section
Request Generated 07/28/2015 at 13:16:41 UTC . Weather information available at that time is displayed.

METAR/TAF

TORONTO/BUTTONVILLE MUNICIPAL/ON    

METAR CYKZ 281300Z 00000KT 15SM FEW260 26/16 A3004 RMK CI1 CI TR
SLP170 DENSITY ALT 1900FT=
METAR CYKZ 281200Z 00000KT 15SM FEW260 24/18 A3004 RMK CI1 CI TR
SLP168 DENSITY ALT 1600FT=
METAR CYKZ 281100Z 00000KT 15SM FEW250 20/17 A3004 RMK CI1 CI TR
SLP168 DENSITY ALT 1200FT=

TAF CYKZ 281138Z 2812/2824 VRB03KT P6SM SKC
FM281600 VRB03KT P6SM FEW050
BECMG 2818/2820 17006KT
RMK NXT FCST BY 281800Z=
Your time UTC time
Weather data provided by Environment Canada and NAV CANADA